sensor_id;sensor_type;location;lat;lon;timestamp;P1;durP1;ratioP1;P2;durP2;ratioP2
15806;SDS011;8005;51.368;6.140;2023-04-10T00:01:24;12.82;;;6.57;;
15806;SDS011;8005;51.368;6.140;2023-04-10T00:02:59;13.30;;;6.70;;
15806;SDS011;8005;51.368;6.140;2023-04-10T00:04:36;10.85;;;6.55;;
15806;SDS011;8005;51.368;6.140;2023-04-10T00:06:09;11.27;;;6.90;;
15806;SDS011;8005;51.368;6.140;2023-04-10T00:07:41;11.57;;;7.18;;
15806;SDS011;8005;51.368;6.140;2023-04-10T00:09:12;10.73;;;6.63;;
15806;SDS011;8005;51.368;6.140;2023-04-10T00:10:44;9.95;;;6.63;;
15806;SDS011;8005;51.368;6.140;2023-04-10T00:12:16;11.75;;;7.30;;
15806;SDS011;8005;51.368;6.140;2023-04-10T00:13:48;12.70;;;7.28;;
15806;SDS011;8005;51.368;6.140;2023-04-10T00:15:21;9.90;;;6.75;;
15806;SDS011;8005;51.368;6.140;2023-04-10T00:16:52;12.63;;;7.37;;
15806;SDS011;8005;51.368;6.140;2023-04-10T00:18:24;12.45;;;7.88;;
15806;SDS011;8005;51.368;6.140;2023-04-10T00:19:56;10.40;;;6.70;;
15806;SDS011;8005;51.368;6.140;2023-04-10T00:21:29;13.38;;;7.32;;
15806;SDS011;8005;51.368;6.140;2023-04-10T00:23:01;12.38;;;7.38;;
15806;SDS011;8005;51.368;6.140;2023-04-10T00:24:33;11.60;;;7.13;;
15806;SDS011;8005;51.368;6.140;2023-04-10T00:26:05;12.93;;;7.68;;
15806;SDS011;8005;51.368;6.140;2023-04-10T00:29:10;11.43;;;6.93;;
15806;SDS011;8005;51.368;6.140;2023-04-10T00:30:42;12.68;;;7.78;;
15806;SDS011;8005;51.368;6.140;2023-04-10T00:33:47;10.50;;;6.80;;
15806;SDS011;8005;51.368;6.140;2023-04-10T00:35:19;11.10;;;6.83;;
15806;SDS011;8005;51.368;6.140;2023-04-10T00:36:53;12.30;;;7.28;;
15806;SDS011;8005;51.368;6.140;2023-04-10T00:38:25;13.18;;;7.10;;
15806;SDS011;8005;51.368;6.140;2023-04-10T00:39:58;14.05;;;7.55;;
15806;SDS011;8005;51.368;6.140;2023-04-10T00:41:30;12.98;;;7.50;;
15806;SDS011;8005;51.368;6.140;2023-04-10T00:43:02;10.63;;;7.03;;
15806;SDS011;8005;51.368;6.140;2023-04-10T00:44:34;12.93;;;7.07;;
15806;SDS011;8005;51.368;6.140;2023-04-10T00:46:07;12.43;;;7.38;;
15806;SDS011;8005;51.368;6.140;2023-04-10T00:47:39;13.35;;;7.88;;
15806;SDS011;8005;51.368;6.140;2023-04-10T00:49:11;10.73;;;6.75;;
15806;SDS011;8005;51.368;6.140;2023-04-10T00:50:44;10.43;;;7.07;;
15806;SDS011;8005;51.368;6.140;2023-04-10T00:52:19;14.85;;;7.20;;
15806;SDS011;8005;51.368;6.140;2023-04-10T00:53:51;16.30;;;7.45;;
15806;SDS011;8005;51.368;6.140;2023-04-10T00:55:25;10.20;;;6.68;;
15806;SDS011;8005;51.368;6.140;2023-04-10T00:56:57;10.37;;;7.10;;
15806;SDS011;8005;51.368;6.140;2023-04-10T00:58:30;11.68;;;8.00;;
15806;SDS011;8005;51.368;6.140;2023-04-10T01:00:02;11.93;;;7.80;;
15806;SDS011;8005;51.368;6.140;2023-04-10T01:01:35;11.20;;;6.88;;
15806;SDS011;8005;51.368;6.140;2023-04-10T01:03:08;9.93;;;6.72;;
15806;SDS011;8005;51.368;6.140;2023-04-10T01:04:40;12.43;;;7.80;;
15806;SDS011;8005;51.368;6.140;2023-04-10T01:11:17;14.50;;;7.10;;
15806;SDS011;8005;51.368;6.140;2023-04-10T01:15:07;15.80;;;7.57;;
15806;SDS011;8005;51.368;6.140;2023-04-10T01:16:45;12.82;;;7.45;;
15806;SDS011;8005;51.368;6.140;2023-04-10T01:18:25;12.63;;;7.28;;
15806;SDS011;8005;51.368;6.140;2023-04-10T01:21:38;9.52;;;6.65;;
15806;SDS011;8005;51.368;6.140;2023-04-10T01:25:04;12.38;;;7.30;;
15806;SDS011;8005;51.368;6.140;2023-04-10T01:30:22;11.93;;;6.82;;
15806;SDS011;8005;51.368;6.140;2023-04-10T01:33:34;9.70;;;6.78;;
15806;SDS011;8005;51.368;6.140;2023-04-10T01:35:10;11.98;;;6.78;;
15806;SDS011;8005;51.368;6.140;2023-04-10T01:36:48;11.73;;;6.45;;
15806;SDS011;8005;51.368;6.140;2023-04-10T01:38:22;13.38;;;7.13;;
15806;SDS011;8005;51.368;6.140;2023-04-10T01:40:03;11.52;;;6.93;;
15806;SDS011;8005;51.368;6.140;2023-04-10T01:41:38;13.23;;;7.43;;
15806;SDS011;8005;51.368;6.140;2023-04-10T01:43:13;17.48;;;7.05;;
15806;SDS011;8005;51.368;6.140;2023-04-10T01:44:52;12.20;;;7.05;;
15806;SDS011;8005;51.368;6.140;2023-04-10T01:46:25;12.18;;;7.05;;
15806;SDS011;8005;51.368;6.140;2023-04-10T01:47:58;9.68;;;6.72;;
15806;SDS011;8005;51.368;6.140;2023-04-10T01:49:30;10.18;;;6.70;;
15806;SDS011;8005;51.368;6.140;2023-04-10T01:51:07;13.07;;;7.32;;
15806;SDS011;8005;51.368;6.140;2023-04-10T01:52:40;12.70;;;6.90;;
15806;SDS011;8005;51.368;6.140;2023-04-10T01:54:21;11.73;;;6.82;;
15806;SDS011;8005;51.368;6.140;2023-04-10T01:55:56;14.52;;;7.47;;
15806;SDS011;8005;51.368;6.140;2023-04-10T01:57:29;11.45;;;7.35;;
15806;SDS011;8005;51.368;6.140;2023-04-10T01:59:03;11.25;;;7.05;;
15806;SDS011;8005;51.368;6.140;2023-04-10T02:00:36;10.13;;;7.07;;
15806;SDS011;8005;51.368;6.140;2023-04-10T02:02:13;12.40;;;6.55;;
15806;SDS011;8005;51.368;6.140;2023-04-10T02:03:45;12.25;;;6.43;;
15806;SDS011;8005;51.368;6.140;2023-04-10T02:05:19;13.63;;;7.25;;
15806;SDS011;8005;51.368;6.140;2023-04-10T02:08:33;14.23;;;6.65;;
15806;SDS011;8005;51.368;6.140;2023-04-10T02:11:57;11.73;;;6.97;;
15806;SDS011;8005;51.368;6.140;2023-04-10T02:13:33;11.20;;;7.05;;
15806;SDS011;8005;51.368;6.140;2023-04-10T02:15:06;12.05;;;7.35;;
15806;SDS011;8005;51.368;6.140;2023-04-10T02:16:39;11.25;;;6.95;;
15806;SDS011;8005;51.368;6.140;2023-04-10T02:18:14;12.15;;;6.13;;
15806;SDS011;8005;51.368;6.140;2023-04-10T02:19:46;9.90;;;6.93;;
15806;SDS011;8005;51.368;6.140;2023-04-10T02:21:19;10.82;;;7.03;;
15806;SDS011;8005;51.368;6.140;2023-04-10T02:22:52;15.20;;;7.22;;
15806;SDS011;8005;51.368;6.140;2023-04-10T02:24:24;10.52;;;6.68;;
15806;SDS011;8005;51.368;6.140;2023-04-10T02:25:56;10.90;;;7.13;;
15806;SDS011;8005;51.368;6.140;2023-04-10T02:27:31;18.50;;;6.80;;
15806;SDS011;8005;51.368;6.140;2023-04-10T02:29:04;12.15;;;6.95;;
15806;SDS011;8005;51.368;6.140;2023-04-10T02:30:38;16.30;;;7.50;;
15806;SDS011;8005;51.368;6.140;2023-04-10T02:32:10;11.97;;;6.70;;
15806;SDS011;8005;51.368;6.140;2023-04-10T02:33:42;10.23;;;7.28;;
15806;SDS011;8005;51.368;6.140;2023-04-10T02:35:15;10.85;;;6.80;;
15806;SDS011;8005;51.368;6.140;2023-04-10T02:36:47;10.33;;;6.43;;
15806;SDS011;8005;51.368;6.140;2023-04-10T02:38:19;13.57;;;7.00;;
15806;SDS011;8005;51.368;6.140;2023-04-10T02:39:51;11.52;;;6.10;;
15806;SDS011;8005;51.368;6.140;2023-04-10T02:41:25;12.70;;;7.32;;
15806;SDS011;8005;51.368;6.140;2023-04-10T02:42:57;11.80;;;7.55;;
15806;SDS011;8005;51.368;6.140;2023-04-10T02:44:30;11.20;;;6.25;;
15806;SDS011;8005;51.368;6.140;2023-04-10T02:46:02;10.30;;;6.47;;
15806;SDS011;8005;51.368;6.140;2023-04-10T02:47:40;14.23;;;6.93;;
15806;SDS011;8005;51.368;6.140;2023-04-10T02:49:13;10.95;;;6.70;;
15806;SDS011;8005;51.368;6.140;2023-04-10T02:50:45;13.13;;;7.68;;
15806;SDS011;8005;51.368;6.140;2023-04-10T02:53:49;11.60;;;6.45;;
15806;SDS011;8005;51.368;6.140;2023-04-10T02:55:32;10.07;;;6.43;;
15806;SDS011;8005;51.368;6.140;2023-04-10T02:57:04;10.18;;;6.72;;
15806;SDS011;8005;51.368;6.140;2023-04-10T02:58:36;12.75;;;7.22;;
15806;SDS011;8005;51.368;6.140;2023-04-10T03:00:09;12.27;;;7.13;;
15806;SDS011;8005;51.368;6.140;2023-04-10T03:02:13;11.55;;;7.00;;
15806;SDS011;8005;51.368;6.140;2023-04-10T03:03:46;11.10;;;6.60;;
15806;SDS011;8005;51.368;6.140;2023-04-10T03:05:26;11.60;;;6.78;;
15806;SDS011;8005;51.368;6.140;2023-04-10T03:06:59;10.70;;;6.55;;
15806;SDS011;8005;51.368;6.140;2023-04-10T03:08:31;11.50;;;6.50;;
15806;SDS011;8005;51.368;6.140;2023-04-10T03:10:03;11.48;;;7.70;;
15806;SDS011;8005;51.368;6.140;2023-04-10T03:11:35;11.27;;;7.07;;
15806;SDS011;8005;51.368;6.140;2023-04-10T03:13:07;10.13;;;6.68;;
15806;SDS011;8005;51.368;6.140;2023-04-10T03:14:39;12.23;;;7.70;;
15806;SDS011;8005;51.368;6.140;2023-04-10T03:16:12;10.40;;;7.00;;
15806;SDS011;8005;51.368;6.140;2023-04-10T03:17:44;10.75;;;6.43;;
15806;SDS011;8005;51.368;6.140;2023-04-10T03:19:16;10.02;;;6.43;;
15806;SDS011;8005;51.368;6.140;2023-04-10T03:20:48;11.32;;;6.55;;
15806;SDS011;8005;51.368;6.140;2023-04-10T03:22:23;12.88;;;6.85;;
15806;SDS011;8005;51.368;6.140;2023-04-10T03:23:58;10.45;;;6.88;;
15806;SDS011;8005;51.368;6.140;2023-04-10T03:25:32;12.00;;;6.73;;
15806;SDS011;8005;51.368;6.140;2023-04-10T03:27:06;11.07;;;7.10;;
15806;SDS011;8005;51.368;6.140;2023-04-10T03:28:38;12.32;;;7.55;;
15806;SDS011;8005;51.368;6.140;2023-04-10T03:30:12;11.30;;;6.95;;
15806;SDS011;8005;51.368;6.140;2023-04-10T03:31:45;14.82;;;6.95;;
15806;SDS011;8005;51.368;6.140;2023-04-10T03:33:17;11.73;;;6.68;;
15806;SDS011;8005;51.368;6.140;2023-04-10T03:34:50;12.43;;;7.43;;
15806;SDS011;8005;51.368;6.140;2023-04-10T03:36:22;11.37;;;7.13;;
15806;SDS011;8005;51.368;6.140;2023-04-10T03:37:57;9.80;;;7.22;;
15806;SDS011;8005;51.368;6.140;2023-04-10T03:39:29;12.20;;;6.93;;
15806;SDS011;8005;51.368;6.140;2023-04-10T03:41:01;12.17;;;6.80;;
15806;SDS011;8005;51.368;6.140;2023-04-10T03:42:35;13.02;;;7.03;;
15806;SDS011;8005;51.368;6.140;2023-04-10T03:44:07;10.90;;;6.85;;
15806;SDS011;8005;51.368;6.140;2023-04-10T03:45:41;10.43;;;6.55;;
15806;SDS011;8005;51.368;6.140;2023-04-10T03:47:13;12.80;;;7.50;;
15806;SDS011;8005;51.368;6.140;2023-04-10T03:48:51;14.73;;;7.78;;
15806;SDS011;8005;51.368;6.140;2023-04-10T03:50:25;12.68;;;6.90;;
15806;SDS011;8005;51.368;6.140;2023-04-10T03:52:01;9.80;;;6.60;;
15806;SDS011;8005;51.368;6.140;2023-04-10T03:53:33;11.70;;;7.20;;
15806;SDS011;8005;51.368;6.140;2023-04-10T03:55:10;11.13;;;6.80;;
15806;SDS011;8005;51.368;6.140;2023-04-10T03:56:43;11.05;;;6.95;;
15806;SDS011;8005;51.368;6.140;2023-04-10T03:58:15;16.60;;;7.30;;
15806;SDS011;8005;51.368;6.140;2023-04-10T03:59:47;12.20;;;7.60;;
15806;SDS011;8005;51.368;6.140;2023-04-10T04:01:19;12.07;;;7.22;;
15806;SDS011;8005;51.368;6.140;2023-04-10T04:03:17;10.35;;;6.43;;
15806;SDS011;8005;51.368;6.140;2023-04-10T04:04:52;11.18;;;6.85;;
15806;SDS011;8005;51.368;6.140;2023-04-10T04:06:44;10.68;;;6.93;;
15806;SDS011;8005;51.368;6.140;2023-04-10T04:08:35;11.35;;;6.78;;
15806;SDS011;8005;51.368;6.140;2023-04-10T04:10:27;12.48;;;7.18;;
15806;SDS011;8005;51.368;6.140;2023-04-10T04:12:17;11.35;;;6.68;;
15806;SDS011;8005;51.368;6.140;2023-04-10T04:14:01;10.57;;;6.55;;
15806;SDS011;8005;51.368;6.140;2023-04-10T04:15:52;12.23;;;7.35;;
15806;SDS011;8005;51.368;6.140;2023-04-10T04:17:40;11.63;;;6.35;;
15806;SDS011;8005;51.368;6.140;2023-04-10T04:19:12;11.88;;;7.90;;
15806;SDS011;8005;51.368;6.140;2023-04-10T04:21:04;15.38;;;7.65;;
15806;SDS011;8005;51.368;6.140;2023-04-10T04:22:52;11.30;;;6.45;;
15806;SDS011;8005;51.368;6.140;2023-04-10T04:24:24;10.98;;;7.22;;
15806;SDS011;8005;51.368;6.140;2023-04-10T04:26:09;11.15;;;7.00;;
15806;SDS011;8005;51.368;6.140;2023-04-10T04:27:51;12.52;;;6.90;;
15806;SDS011;8005;51.368;6.140;2023-04-10T04:29:48;11.55;;;7.07;;
15806;SDS011;8005;51.368;6.140;2023-04-10T04:31:40;10.70;;;7.07;;
15806;SDS011;8005;51.368;6.140;2023-04-10T04:33:19;10.45;;;6.30;;
15806;SDS011;8005;51.368;6.140;2023-04-10T04:37:05;12.98;;;7.03;;
15806;SDS011;8005;51.368;6.140;2023-04-10T04:38:44;12.32;;;6.72;;
15806;SDS011;8005;51.368;6.140;2023-04-10T04:40:33;9.57;;;6.53;;
15806;SDS011;8005;51.368;6.140;2023-04-10T04:42:32;11.77;;;7.03;;
15806;SDS011;8005;51.368;6.140;2023-04-10T04:44:23;11.38;;;7.70;;
15806;SDS011;8005;51.368;6.140;2023-04-10T04:46:06;11.20;;;6.85;;
15806;SDS011;8005;51.368;6.140;2023-04-10T04:47:54;11.98;;;7.43;;
15806;SDS011;8005;51.368;6.140;2023-04-10T04:49:53;13.95;;;6.53;;
15806;SDS011;8005;51.368;6.140;2023-04-10T04:51:25;12.50;;;7.05;;
15806;SDS011;8005;51.368;6.140;2023-04-10T04:53:08;11.38;;;6.45;;
15806;SDS011;8005;51.368;6.140;2023-04-10T04:55:02;10.95;;;6.75;;
15806;SDS011;8005;51.368;6.140;2023-04-10T04:56:40;11.52;;;6.85;;
15806;SDS011;8005;51.368;6.140;2023-04-10T04:58:26;11.45;;;6.95;;
15806;SDS011;8005;51.368;6.140;2023-04-10T05:00:17;10.18;;;6.43;;
15806;SDS011;8005;51.368;6.140;2023-04-10T05:02:11;13.82;;;7.32;;
15806;SDS011;8005;51.368;6.140;2023-04-10T05:04:02;9.93;;;6.45;;
15806;SDS011;8005;51.368;6.140;2023-04-10T05:05:45;8.70;;;6.18;;
15806;SDS011;8005;51.368;6.140;2023-04-10T05:07:49;12.35;;;6.65;;
15806;SDS011;8005;51.368;6.140;2023-04-10T05:09:34;12.98;;;7.43;;
15806;SDS011;8005;51.368;6.140;2023-04-10T05:11:41;11.98;;;6.85;;
15806;SDS011;8005;51.368;6.140;2023-04-10T05:13:22;13.18;;;7.13;;
15806;SDS011;8005;51.368;6.140;2023-04-10T05:15:15;12.27;;;7.05;;
15806;SDS011;8005;51.368;6.140;2023-04-10T05:17:08;15.48;;;7.10;;
15806;SDS011;8005;51.368;6.140;2023-04-10T05:18:49;11.43;;;7.07;;
15806;SDS011;8005;51.368;6.140;2023-04-10T05:20:42;11.88;;;7.10;;
15806;SDS011;8005;51.368;6.140;2023-04-10T05:22:40;11.32;;;7.32;;
15806;SDS011;8005;51.368;6.140;2023-04-10T05:24:30;11.95;;;7.53;;
15806;SDS011;8005;51.368;6.140;2023-04-10T05:26:14;13.02;;;6.63;;
15806;SDS011;8005;51.368;6.140;2023-04-10T05:28:05;10.63;;;6.80;;
15806;SDS011;8005;51.368;6.140;2023-04-10T05:29:55;11.80;;;7.20;;
15806;SDS011;8005;51.368;6.140;2023-04-10T05:31:42;12.35;;;7.53;;
15806;SDS011;8005;51.368;6.140;2023-04-10T05:33:34;11.60;;;6.70;;
15806;SDS011;8005;51.368;6.140;2023-04-10T05:35:12;11.07;;;7.25;;
15806;SDS011;8005;51.368;6.140;2023-04-10T05:36:49;13.27;;;7.28;;
15806;SDS011;8005;51.368;6.140;2023-04-10T05:38:41;10.43;;;6.45;;
15806;SDS011;8005;51.368;6.140;2023-04-10T05:40:39;11.27;;;7.05;;
15806;SDS011;8005;51.368;6.140;2023-04-10T05:42:34;12.63;;;7.63;;
15806;SDS011;8005;51.368;6.140;2023-04-10T05:44:31;13.40;;;7.70;;
15806;SDS011;8005;51.368;6.140;2023-04-10T05:46:23;11.55;;;7.03;;
15806;SDS011;8005;51.368;6.140;2023-04-10T05:48:27;14.23;;;7.55;;
15806;SDS011;8005;51.368;6.140;2023-04-10T05:50:19;15.18;;;7.60;;
15806;SDS011;8005;51.368;6.140;2023-04-10T05:52:01;14.13;;;7.60;;
15806;SDS011;8005;51.368;6.140;2023-04-10T05:53:51;10.55;;;7.40;;
15806;SDS011;8005;51.368;6.140;2023-04-10T05:55:30;10.15;;;6.85;;
15806;SDS011;8005;51.368;6.140;2023-04-10T05:57:18;12.45;;;7.93;;
15806;SDS011;8005;51.368;6.140;2023-04-10T05:59:08;9.65;;;6.82;;
15806;SDS011;8005;51.368;6.140;2023-04-10T06:01:15;12.20;;;7.10;;
15806;SDS011;8005;51.368;6.140;2023-04-10T06:02:47;13.02;;;7.00;;
15806;SDS011;8005;51.368;6.140;2023-04-10T06:04:27;11.63;;;7.03;;
15806;SDS011;8005;51.368;6.140;2023-04-10T06:06:01;13.23;;;7.75;;
15806;SDS011;8005;51.368;6.140;2023-04-10T06:07:34;12.98;;;7.88;;
15806;SDS011;8005;51.368;6.140;2023-04-10T06:09:07;12.75;;;7.90;;
15806;SDS011;8005;51.368;6.140;2023-04-10T06:10:39;13.77;;;7.80;;
15806;SDS011;8005;51.368;6.140;2023-04-10T06:12:14;12.25;;;7.57;;
15806;SDS011;8005;51.368;6.140;2023-04-10T06:13:46;10.68;;;7.18;;
15806;SDS011;8005;51.368;6.140;2023-04-10T06:15:19;9.82;;;6.75;;
15806;SDS011;8005;51.368;6.140;2023-04-10T06:16:51;11.43;;;7.27;;
15806;SDS011;8005;51.368;6.140;2023-04-10T06:18:24;11.87;;;7.63;;
15806;SDS011;8005;51.368;6.140;2023-04-10T06:19:56;12.82;;;7.78;;
15806;SDS011;8005;51.368;6.140;2023-04-10T06:21:32;12.18;;;7.57;;
15806;SDS011;8005;51.368;6.140;2023-04-10T06:23:04;10.35;;;7.60;;
15806;SDS011;8005;51.368;6.140;2023-04-10T06:24:36;11.93;;;7.38;;
15806;SDS011;8005;51.368;6.140;2023-04-10T06:26:09;11.55;;;6.93;;
15806;SDS011;8005;51.368;6.140;2023-04-10T06:27:41;11.52;;;7.60;;
15806;SDS011;8005;51.368;6.140;2023-04-10T06:29:14;15.00;;;7.65;;
15806;SDS011;8005;51.368;6.140;2023-04-10T06:32:19;13.63;;;7.40;;
15806;SDS011;8005;51.368;6.140;2023-04-10T06:33:53;11.95;;;7.60;;
15806;SDS011;8005;51.368;6.140;2023-04-10T06:35:26;10.10;;;6.45;;
15806;SDS011;8005;51.368;6.140;2023-04-10T06:36:58;9.88;;;7.07;;
15806;SDS011;8005;51.368;6.140;2023-04-10T06:38:31;12.50;;;7.20;;
15806;SDS011;8005;51.368;6.140;2023-04-10T06:40:05;10.82;;;7.35;;
15806;SDS011;8005;51.368;6.140;2023-04-10T06:41:41;10.82;;;6.80;;
15806;SDS011;8005;51.368;6.140;2023-04-10T06:43:27;9.93;;;6.70;;
15806;SDS011;8005;51.368;6.140;2023-04-10T06:44:59;9.93;;;7.05;;
15806;SDS011;8005;51.368;6.140;2023-04-10T06:46:31;12.82;;;7.45;;
15806;SDS011;8005;51.368;6.140;2023-04-10T06:48:03;11.50;;;6.97;;
15806;SDS011;8005;51.368;6.140;2023-04-10T06:49:36;12.07;;;6.38;;
15806;SDS011;8005;51.368;6.140;2023-04-10T06:51:08;10.53;;;6.73;;
15806;SDS011;8005;51.368;6.140;2023-04-10T06:52:40;10.77;;;7.40;;
15806;SDS011;8005;51.368;6.140;2023-04-10T06:54:12;12.43;;;6.90;;
15806;SDS011;8005;51.368;6.140;2023-04-10T06:55:43;14.05;;;7.68;;
15806;SDS011;8005;51.368;6.140;2023-04-10T06:57:15;12.20;;;6.75;;
15806;SDS011;8005;51.368;6.140;2023-04-10T06:58:47;12.32;;;6.40;;
15806;SDS011;8005;51.368;6.140;2023-04-10T07:00:19;11.10;;;6.88;;
15806;SDS011;8005;51.368;6.140;2023-04-10T07:01:51;10.68;;;6.22;;
15806;SDS011;8005;51.368;6.140;2023-04-10T07:03:23;11.70;;;7.63;;
15806;SDS011;8005;51.368;6.140;2023-04-10T07:04:55;10.93;;;6.60;;
15806;SDS011;8005;51.368;6.140;2023-04-10T07:06:27;14.07;;;7.23;;
15806;SDS011;8005;51.368;6.140;2023-04-10T07:07:59;10.77;;;6.43;;
15806;SDS011;8005;51.368;6.140;2023-04-10T07:09:31;10.02;;;6.28;;
15806;SDS011;8005;51.368;6.140;2023-04-10T07:11:03;10.88;;;7.22;;
15806;SDS011;8005;51.368;6.140;2023-04-10T07:12:35;10.43;;;6.67;;
15806;SDS011;8005;51.368;6.140;2023-04-10T07:14:07;8.35;;;5.75;;
15806;SDS011;8005;51.368;6.140;2023-04-10T07:15:39;11.60;;;6.60;;
15806;SDS011;8005;51.368;6.140;2023-04-10T07:17:11;10.38;;;6.90;;
15806;SDS011;8005;51.368;6.140;2023-04-10T07:18:43;11.02;;;6.85;;
15806;SDS011;8005;51.368;6.140;2023-04-10T07:20:17;9.77;;;5.78;;
15806;SDS011;8005;51.368;6.140;2023-04-10T07:21:49;9.63;;;6.50;;
15806;SDS011;8005;51.368;6.140;2023-04-10T07:23:21;11.90;;;6.50;;
15806;SDS011;8005;51.368;6.140;2023-04-10T07:24:53;14.65;;;6.53;;
15806;SDS011;8005;51.368;6.140;2023-04-10T07:26:25;11.10;;;6.13;;
15806;SDS011;8005;51.368;6.140;2023-04-10T07:27:57;9.63;;;5.85;;
15806;SDS011;8005;51.368;6.140;2023-04-10T07:29:31;10.10;;;6.22;;
15806;SDS011;8005;51.368;6.140;2023-04-10T07:31:02;9.30;;;5.93;;
15806;SDS011;8005;51.368;6.140;2023-04-10T07:32:34;11.48;;;6.25;;
15806;SDS011;8005;51.368;6.140;2023-04-10T07:34:09;11.02;;;6.30;;
15806;SDS011;8005;51.368;6.140;2023-04-10T07:35:41;12.00;;;6.57;;
15806;SDS011;8005;51.368;6.140;2023-04-10T07:37:13;10.30;;;6.50;;
15806;SDS011;8005;51.368;6.140;2023-04-10T07:38:45;12.13;;;6.15;;
15806;SDS011;8005;51.368;6.140;2023-04-10T07:40:17;8.15;;;6.13;;
15806;SDS011;8005;51.368;6.140;2023-04-10T07:41:51;10.88;;;6.45;;
15806;SDS011;8005;51.368;6.140;2023-04-10T07:43:24;14.48;;;6.28;;
15806;SDS011;8005;51.368;6.140;2023-04-10T07:44:56;10.25;;;6.35;;
15806;SDS011;8005;51.368;6.140;2023-04-10T07:46:28;12.38;;;6.65;;
15806;SDS011;8005;51.368;6.140;2023-04-10T07:48:00;10.50;;;6.03;;
15806;SDS011;8005;51.368;6.140;2023-04-10T07:49:33;9.65;;;6.50;;
15806;SDS011;8005;51.368;6.140;2023-04-10T07:51:05;12.10;;;6.30;;
15806;SDS011;8005;51.368;6.140;2023-04-10T07:52:39;14.18;;;6.75;;
15806;SDS011;8005;51.368;6.140;2023-04-10T07:54:11;12.75;;;6.22;;
15806;SDS011;8005;51.368;6.140;2023-04-10T07:55:43;10.40;;;5.70;;
15806;SDS011;8005;51.368;6.140;2023-04-10T07:57:16;12.02;;;6.13;;
15806;SDS011;8005;51.368;6.140;2023-04-10T07:58:48;8.43;;;5.25;;
15806;SDS011;8005;51.368;6.140;2023-04-10T08:01:53;7.88;;;5.40;;
15806;SDS011;8005;51.368;6.140;2023-04-10T08:03:26;10.65;;;5.45;;
15806;SDS011;8005;51.368;6.140;2023-04-10T08:04:59;9.23;;;5.28;;
15806;SDS011;8005;51.368;6.140;2023-04-10T08:06:31;11.13;;;5.65;;
15806;SDS011;8005;51.368;6.140;2023-04-10T08:08:03;14.55;;;6.00;;
15806;SDS011;8005;51.368;6.140;2023-04-10T08:09:35;10.80;;;5.82;;
15806;SDS011;8005;51.368;6.140;2023-04-10T08:11:20;11.48;;;5.65;;
15806;SDS011;8005;51.368;6.140;2023-04-10T08:12:53;13.07;;;6.00;;
15806;SDS011;8005;51.368;6.140;2023-04-10T08:14:25;9.48;;;5.82;;
15806;SDS011;8005;51.368;6.140;2023-04-10T08:15:57;8.38;;;4.80;;
15806;SDS011;8005;51.368;6.140;2023-04-10T08:17:29;6.95;;;5.18;;
15806;SDS011;8005;51.368;6.140;2023-04-10T08:19:01;10.80;;;5.75;;
15806;SDS011;8005;51.368;6.140;2023-04-10T08:20:33;10.73;;;6.60;;
15806;SDS011;8005;51.368;6.140;2023-04-10T08:22:07;10.27;;;6.00;;
15806;SDS011;8005;51.368;6.140;2023-04-10T08:23:39;8.10;;;5.85;;
15806;SDS011;8005;51.368;6.140;2023-04-10T08:25:11;8.87;;;5.27;;
15806;SDS011;8005;51.368;6.140;2023-04-10T08:26:43;10.13;;;5.50;;
15806;SDS011;8005;51.368;6.140;2023-04-10T08:28:15;9.13;;;5.93;;
15806;SDS011;8005;51.368;6.140;2023-04-10T08:29:47;11.07;;;5.73;;
15806;SDS011;8005;51.368;6.140;2023-04-10T08:31:19;9.63;;;5.77;;
15806;SDS011;8005;51.368;6.140;2023-04-10T08:32:52;11.15;;;6.53;;
15806;SDS011;8005;51.368;6.140;2023-04-10T08:34:24;12.82;;;8.30;;
15806;SDS011;8005;51.368;6.140;2023-04-10T08:35:56;10.45;;;6.20;;
15806;SDS011;8005;51.368;6.140;2023-04-10T08:37:28;11.15;;;6.07;;
15806;SDS011;8005;51.368;6.140;2023-04-10T08:39:00;9.90;;;5.55;;
15806;SDS011;8005;51.368;6.140;2023-04-10T08:40:35;7.03;;;4.85;;
15806;SDS011;8005;51.368;6.140;2023-04-10T08:42:09;8.43;;;4.32;;
15806;SDS011;8005;51.368;6.140;2023-04-10T08:43:41;8.95;;;5.22;;
15806;SDS011;8005;51.368;6.140;2023-04-10T08:46:45;7.03;;;5.30;;
15806;SDS011;8005;51.368;6.140;2023-04-10T08:48:19;11.50;;;5.80;;
15806;SDS011;8005;51.368;6.140;2023-04-10T08:51:25;7.50;;;5.35;;
15806;SDS011;8005;51.368;6.140;2023-04-10T08:53:04;9.20;;;4.88;;
15806;SDS011;8005;51.368;6.140;2023-04-10T08:54:39;7.32;;;5.28;;
15806;SDS011;8005;51.368;6.140;2023-04-10T08:56:12;7.18;;;4.45;;
15806;SDS011;8005;51.368;6.140;2023-04-10T08:57:47;6.45;;;5.20;;
15806;SDS011;8005;51.368;6.140;2023-04-10T08:59:31;6.45;;;4.70;;
15806;SDS011;8005;51.368;6.140;2023-04-10T09:01:03;7.70;;;4.78;;
15806;SDS011;8005;51.368;6.140;2023-04-10T09:02:39;8.43;;;5.00;;
15806;SDS011;8005;51.368;6.140;2023-04-10T09:04:13;6.20;;;4.25;;
15806;SDS011;8005;51.368;6.140;2023-04-10T09:05:47;9.73;;;5.38;;
15806;SDS011;8005;51.368;6.140;2023-04-10T09:07:19;6.70;;;5.07;;
15806;SDS011;8005;51.368;6.140;2023-04-10T09:08:51;7.60;;;5.53;;
15806;SDS011;8005;51.368;6.140;2023-04-10T09:10:23;6.40;;;5.00;;
15806;SDS011;8005;51.368;6.140;2023-04-10T09:11:55;6.85;;;4.72;;
15806;SDS011;8005;51.368;6.140;2023-04-10T09:13:41;7.22;;;5.07;;
15806;SDS011;8005;51.368;6.140;2023-04-10T09:15:14;8.02;;;5.13;;
15806;SDS011;8005;51.368;6.140;2023-04-10T09:16:46;7.65;;;4.90;;
15806;SDS011;8005;51.368;6.140;2023-04-10T09:18:18;7.75;;;5.63;;
15806;SDS011;8005;51.368;6.140;2023-04-10T09:19:51;7.40;;;5.23;;
15806;SDS011;8005;51.368;6.140;2023-04-10T09:21:25;7.50;;;5.90;;
15806;SDS011;8005;51.368;6.140;2023-04-10T09:28:56;6.82;;;4.85;;
15806;SDS011;8005;51.368;6.140;2023-04-10T09:33:47;8.55;;;5.20;;
15806;SDS011;8005;51.368;6.140;2023-04-10T09:46:27;7.32;;;5.18;;
15806;SDS011;8005;51.368;6.140;2023-04-10T09:49:43;8.70;;;5.07;;
15806;SDS011;8005;51.368;6.140;2023-04-10T09:51:29;6.53;;;4.53;;
15806;SDS011;8005;51.368;6.140;2023-04-10T09:53:02;8.65;;;4.80;;
15806;SDS011;8005;51.368;6.140;2023-04-10T09:54:35;9.05;;;5.88;;
15806;SDS011;8005;51.368;6.140;2023-04-10T09:56:08;7.13;;;4.63;;
15806;SDS011;8005;51.368;6.140;2023-04-10T09:57:42;6.35;;;5.20;;
15806;SDS011;8005;51.368;6.140;2023-04-10T09:59:16;7.28;;;4.47;;
15806;SDS011;8005;51.368;6.140;2023-04-10T10:00:48;6.80;;;4.32;;
15806;SDS011;8005;51.368;6.140;2023-04-10T10:02:33;6.68;;;4.50;;
15806;SDS011;8005;51.368;6.140;2023-04-10T10:04:30;6.85;;;4.80;;
15806;SDS011;8005;51.368;6.140;2023-04-10T10:06:33;6.03;;;4.47;;
15806;SDS011;8005;51.368;6.140;2023-04-10T10:08:09;6.03;;;4.30;;
15806;SDS011;8005;51.368;6.140;2023-04-10T10:09:48;6.43;;;4.40;;
15806;SDS011;8005;51.368;6.140;2023-04-10T10:11:24;6.97;;;4.20;;
15806;SDS011;8005;51.368;6.140;2023-04-10T10:13:07;9.35;;;4.28;;
15806;SDS011;8005;51.368;6.140;2023-04-10T10:16:54;6.57;;;4.38;;
15806;SDS011;8005;51.368;6.140;2023-04-10T10:20:51;6.32;;;4.38;;
15806;SDS011;8005;51.368;6.140;2023-04-10T10:22:24;8.82;;;4.00;;
15806;SDS011;8005;51.368;6.140;2023-04-10T10:24:29;5.78;;;4.05;;
15806;SDS011;8005;51.368;6.140;2023-04-10T10:30:51;7.57;;;4.57;;
15806;SDS011;8005;51.368;6.140;2023-04-10T10:32:27;7.88;;;4.93;;
15806;SDS011;8005;51.368;6.140;2023-04-10T10:34:06;5.82;;;4.57;;
15806;SDS011;8005;51.368;6.140;2023-04-10T10:35:46;7.35;;;4.53;;
15806;SDS011;8005;51.368;6.140;2023-04-10T10:37:21;10.48;;;4.68;;
15806;SDS011;8005;51.368;6.140;2023-04-10T10:39:12;8.52;;;5.47;;
15806;SDS011;8005;51.368;6.140;2023-04-10T10:42:39;6.88;;;4.28;;
15806;SDS011;8005;51.368;6.140;2023-04-10T10:48:35;5.75;;;4.13;;
15806;SDS011;8005;51.368;6.140;2023-04-10T10:50:10;8.15;;;4.72;;
15806;SDS011;8005;51.368;6.140;2023-04-10T10:53:01;8.85;;;4.57;;
15806;SDS011;8005;51.368;6.140;2023-04-10T10:54:37;6.00;;;4.30;;
15806;SDS011;8005;51.368;6.140;2023-04-10T10:59:52;7.45;;;4.90;;